sensor_id;sensor_type;location;lat;lon;timestamp;pressure;altitude;pressure_sealevel;temperature;humidity
2681;BME280;1350;42.134;24.708;2024-01-30T00:00:30;101609.78;;;2.84;76.87
2681;BME280;1350;42.134;24.708;2024-01-30T00:02:57;101613.13;;;2.74;77.29
2681;BME280;1350;42.134;24.708;2024-01-30T00:05:24;101611.22;;;2.60;78.01
2681;BME280;1350;42.134;24.708;2024-01-30T00:07:52;101618.09;;;2.53;77.71
2681;BME280;1350;42.134;24.708;2024-01-30T00:10:19;101610.44;;;2.70;77.68
2681;BME280;1350;42.134;24.708;2024-01-30T00:12:46;101617.28;;;2.57;78.41
2681;BME280;1350;42.134;24.708;2024-01-30T00:15:13;101617.28;;;2.57;78.44
2681;BME280;1350;42.134;24.708;2024-01-30T00:17:40;101611.31;;;2.69;77.83
2681;BME280;1350;42.134;24.708;2024-01-30T00:20:08;101619.19;;;2.69;77.27
2681;BME280;1350;42.134;24.708;2024-01-30T00:22:35;101620.94;;;2.70;77.29
2681;BME280;1350;42.134;24.708;2024-01-30T00:25:04;101620.88;;;2.67;76.69
2681;BME280;1350;42.134;24.708;2024-01-30T00:27:32;101613.94;;;2.69;77.18
2681;BME280;1350;42.134;24.708;2024-01-30T00:29:58;101607.91;;;2.76;76.55
2681;BME280;1350;42.134;24.708;2024-01-30T00:32:25;101618.31;;;2.71;77.04
2681;BME280;1350;42.134;24.708;2024-01-30T00:34:52;101623.50;;;2.65;76.94
2681;BME280;1350;42.134;24.708;2024-01-30T00:37:19;101621.88;;;2.75;76.47
2681;BME280;1350;42.134;24.708;2024-01-30T00:39:46;101613.06;;;2.68;77.07
2681;BME280;1350;42.134;24.708;2024-01-30T00:42:15;101618.19;;;2.61;77.56
2681;BME280;1350;42.134;24.708;2024-01-30T00:44:41;101620.94;;;2.71;76.79
2681;BME280;1350;42.134;24.708;2024-01-30T00:47:08;101619.25;;;2.75;76.80
2681;BME280;1350;42.134;24.708;2024-01-30T00:49:36;101621.97;;;2.82;76.74
2681;BME280;1350;42.134;24.708;2024-01-30T00:52:03;101626.16;;;2.68;77.14
2681;BME280;1350;42.134;24.708;2024-01-30T00:54:30;101622.75;;;2.78;76.89
2681;BME280;1350;42.134;24.708;2024-01-30T00:56:57;101617.38;;;2.65;76.86
2681;BME280;1350;42.134;24.708;2024-01-30T00:59:25;101614.88;;;2.75;76.90
2681;BME280;1350;42.134;24.708;2024-01-30T01:01:52;101621.00;;;2.76;77.28
2681;BME280;1350;42.134;24.708;2024-01-30T01:04:19;101619.19;;;2.70;77.13
2681;BME280;1350;42.134;24.708;2024-01-30T01:06:46;101620.13;;;2.78;77.34
2681;BME280;1350;42.134;24.708;2024-01-30T01:09:13;101622.91;;;2.87;77.12
2681;BME280;1350;42.134;24.708;2024-01-30T01:11:40;101619.41;;;2.90;76.44
2681;BME280;1350;42.134;24.708;2024-01-30T01:14:07;101619.50;;;2.97;76.66
2681;BME280;1350;42.134;24.708;2024-01-30T01:16:36;101618.63;;;2.97;76.69
2681;BME280;1350;42.134;24.708;2024-01-30T01:19:03;101620.31;;;2.92;78.01
2681;BME280;1350;42.134;24.708;2024-01-30T01:21:32;101612.44;;;2.89;77.92
2681;BME280;1350;42.134;24.708;2024-01-30T01:23:59;101615.78;;;2.79;78.96
2681;BME280;1350;42.134;24.708;2024-01-30T01:26:26;101613.22;;;2.83;78.70
2681;BME280;1350;42.134;24.708;2024-01-30T01:28:52;101606.22;;;2.81;78.95
2681;BME280;1350;42.134;24.708;2024-01-30T01:31:19;101607.72;;;2.59;80.69
2681;BME280;1350;42.134;24.708;2024-01-30T01:33:51;101601.28;;;2.35;82.73
2681;BME280;1350;42.134;24.708;2024-01-30T01:36:18;101603.06;;;2.37;82.44
2681;BME280;1350;42.134;24.708;2024-01-30T01:38:45;101602.69;;;2.10;84.66
2681;BME280;1350;42.134;24.708;2024-01-30T01:41:12;101605.03;;;1.91;86.26
2681;BME280;1350;42.134;24.708;2024-01-30T01:43:39;101601.31;;;1.77;86.40
2681;BME280;1350;42.134;24.708;2024-01-30T01:46:06;101605.47;;;1.64;87.77
2681;BME280;1350;42.134;24.708;2024-01-30T01:48:33;101598.59;;;1.69;87.99
2681;BME280;1350;42.134;24.708;2024-01-30T01:51:02;101604.50;;;1.59;89.07
2681;BME280;1350;42.134;24.708;2024-01-30T01:53:30;101599.31;;;1.60;90.01
2681;BME280;1350;42.134;24.708;2024-01-30T01:55:57;101603.66;;;1.61;90.27
2681;BME280;1350;42.134;24.708;2024-01-30T01:58:27;101603.53;;;1.54;91.22
2681;BME280;1350;42.134;24.708;2024-01-30T02:00:56;101608.53;;;1.40;93.32
2681;BME280;1350;42.134;24.708;2024-01-30T02:03:23;101609.31;;;1.33;94.01
2681;BME280;1350;42.134;24.708;2024-01-30T02:05:51;101602.44;;;1.40;94.95
2681;BME280;1350;42.134;24.708;2024-01-30T02:08:20;101606.84;;;1.42;94.79
2681;BME280;1350;42.134;24.708;2024-01-30T02:10:47;101607.63;;;1.38;96.21
2681;BME280;1350;42.134;24.708;2024-01-30T02:13:14;101611.00;;;1.31;96.10
2681;BME280;1350;42.134;24.708;2024-01-30T02:15:41;101607.53;;;1.32;97.72
2681;BME280;1350;42.134;24.708;2024-01-30T02:18:08;101609.22;;;1.29;97.73
2681;BME280;1350;42.134;24.708;2024-01-30T02:20:35;101615.44;;;0.89;100.00
2681;BME280;1350;42.134;24.708;2024-01-30T02:23:04;101615.66;;;1.00;100.00
2681;BME280;1350;42.134;24.708;2024-01-30T02:25:33;101609.63;;;1.04;100.00
2681;BME280;1350;42.134;24.708;2024-01-30T02:28:00;101617.69;;;0.71;100.00
2681;BME280;1350;42.134;24.708;2024-01-30T02:30:27;101618.03;;;0.46;100.00
2681;BME280;1350;42.134;24.708;2024-01-30T02:32:54;101619.72;;;0.43;100.00
2681;BME280;1350;42.134;24.708;2024-01-30T02:35:21;101626.53;;;0.36;100.00
2681;BME280;1350;42.134;24.708;2024-01-30T02:37:48;101626.56;;;0.38;100.00
2681;BME280;1350;42.134;24.708;2024-01-30T02:40:16;101621.28;;;0.35;100.00
2681;BME280;1350;42.134;24.708;2024-01-30T02:42:43;101621.34;;;0.38;100.00
2681;BME280;1350;42.134;24.708;2024-01-30T02:45:12;101617.13;;;0.04;100.00
2681;BME280;1350;42.134;24.708;2024-01-30T02:47:39;101627.66;;;0.09;100.00
2681;BME280;1350;42.134;24.708;2024-01-30T02:50:06;101622.72;;;0.21;100.00
2681;BME280;1350;42.134;24.708;2024-01-30T02:52:33;101623.91;;;0.36;100.00
2681;BME280;1350;42.134;24.708;2024-01-30T02:55:00;101626.34;;;0.27;100.00
2681;BME280;1350;42.134;24.708;2024-01-30T02:57:29;101629.94;;;0.32;100.00
2681;BME280;1350;42.134;24.708;2024-01-30T02:59:56;101635.09;;;0.29;100.00
2681;BME280;1350;42.134;24.708;2024-01-30T03:02:23;101640.94;;;0.19;100.00
2681;BME280;1350;42.134;24.708;2024-01-30T03:04:50;101639.25;;;0.21;100.00
2681;BME280;1350;42.134;24.708;2024-01-30T03:07:17;101640.06;;;0.20;100.00
2681;BME280;1350;42.134;24.708;2024-01-30T03:09:44;101632.03;;;0.11;100.00
2681;BME280;1350;42.134;24.708;2024-01-30T03:12:11;101638.16;;;0.12;100.00
2681;BME280;1350;42.134;24.708;2024-01-30T03:14:40;101635.13;;;-0.07;100.00
2681;BME280;1350;42.134;24.708;2024-01-30T03:17:07;101633.97;;;0.18;100.00
2681;BME280;1350;42.134;24.708;2024-01-30T03:19:34;101638.22;;;0.15;100.00
2681;BME280;1350;42.134;24.708;2024-01-30T03:22:01;101634.09;;;0.24;100.00
2681;BME280;1350;42.134;24.708;2024-01-30T03:24:28;101629.91;;;0.31;100.00
2681;BME280;1350;42.134;24.708;2024-01-30T03:26:55;101625.16;;;0.53;100.00
2681;BME280;1350;42.134;24.708;2024-01-30T03:29:22;101623.41;;;0.52;100.00
2681;BME280;1350;42.134;24.708;2024-01-30T03:31:50;101623.06;;;0.37;100.00
2681;BME280;1350;42.134;24.708;2024-01-30T03:34:17;101626.34;;;0.27;100.00
2681;BME280;1350;42.134;24.708;2024-01-30T03:36:44;101632.41;;;0.26;100.00
2681;BME280;1350;42.134;24.708;2024-01-30T03:39:11;101629.03;;;0.32;100.00
2681;BME280;1350;42.134;24.708;2024-01-30T03:41:38;101637.47;;;0.20;100.00
2681;BME280;1350;42.134;24.708;2024-01-30T03:44:06;101629.81;;;0.26;100.00
2681;BME280;1350;42.134;24.708;2024-01-30T03:46:33;101625.34;;;0.22;100.00
2681;BME280;1350;42.134;24.708;2024-01-30T03:49:01;101626.97;;;0.17;100.00
2681;BME280;1350;42.134;24.708;2024-01-30T03:51:28;101618.25;;;0.15;100.00
2681;BME280;1350;42.134;24.708;2024-01-30T03:53:55;101622.34;;;0.04;100.00
2681;BME280;1350;42.134;24.708;2024-01-30T03:56:22;101618.66;;;-0.04;100.00
2681;BME280;1350;42.134;24.708;2024-01-30T03:58:51;101623.88;;;-0.04;100.00
2681;BME280;1350;42.134;24.708;2024-01-30T04:01:18;101622.88;;;-0.09;100.00
2681;BME280;1350;42.134;24.708;2024-01-30T04:03:45;101631.56;;;-0.10;100.00
2681;BME280;1350;42.134;24.708;2024-01-30T04:06:13;101635.06;;;-0.10;100.00
2681;BME280;1350;42.134;24.708;2024-01-30T04:08:40;101640.41;;;-0.04;100.00
2681;BME280;1350;42.134;24.708;2024-01-30T04:11:07;101636.31;;;0.06;100.00
2681;BME280;1350;42.134;24.708;2024-01-30T04:13:34;101631.19;;;0.11;100.00
2681;BME280;1350;42.134;24.708;2024-01-30T04:16:02;101629.50;;;0.14;100.00
2681;BME280;1350;42.134;24.708;2024-01-30T04:18:29;101625.16;;;0.13;100.00
2681;BME280;1350;42.134;24.708;2024-01-30T04:20:56;101629.56;;;0.17;100.00
2681;BME280;1350;42.134;24.708;2024-01-30T04:23:24;101630.44;;;0.16;100.00
2681;BME280;1350;42.134;24.708;2024-01-30T04:25:51;101627.91;;;0.21;100.00
2681;BME280;1350;42.134;24.708;2024-01-30T04:28:18;101629.81;;;0.26;100.00
2681;BME280;1350;42.134;24.708;2024-01-30T04:30:45;101621.94;;;0.25;100.00
2681;BME280;1350;42.134;24.708;2024-01-30T04:33:12;101632.41;;;0.26;100.00
2681;BME280;1350;42.134;24.708;2024-01-30T04:35:39;101629.84;;;0.28;100.00
2681;BME280;1350;42.134;24.708;2024-01-30T04:38:06;101638.63;;;0.33;100.00
2681;BME280;1350;42.134;24.708;2024-01-30T04:40:34;101646.53;;;0.37;100.00
2681;BME280;1350;42.134;24.708;2024-01-30T04:43:01;101645.91;;;0.47;100.00
2681;BME280;1350;42.134;24.708;2024-01-30T04:45:28;101651.72;;;0.36;100.00
2681;BME280;1350;42.134;24.708;2024-01-30T04:47:55;101644.13;;;0.46;100.00
2681;BME280;1350;42.134;24.708;2024-01-30T04:50:22;101648.38;;;0.41;100.00
2681;BME280;1350;42.134;24.708;2024-01-30T04:52:50;101649.56;;;0.55;100.00
2681;BME280;1350;42.134;24.708;2024-01-30T04:55:16;101652.75;;;0.42;100.00
2681;BME280;1350;42.134;24.708;2024-01-30T04:57:45;101659.22;;;0.61;100.00
2681;BME280;1350;42.134;24.708;2024-01-30T05:00:12;101660.31;;;0.70;100.00
2681;BME280;1350;42.134;24.708;2024-01-30T05:02:39;101659.75;;;0.86;100.00
2681;BME280;1350;42.134;24.708;2024-01-30T05:05:06;101659.69;;;0.83;100.00
2681;BME280;1350;42.134;24.708;2024-01-30T05:07:33;101656.97;;;0.77;100.00
2681;BME280;1350;42.134;24.708;2024-01-30T05:10:00;101654.22;;;0.71;100.00
2681;BME280;1350;42.134;24.708;2024-01-30T05:12:28;101659.31;;;0.64;100.00
2681;BME280;1350;42.134;24.708;2024-01-30T05:14:56;101668.56;;;0.50;100.00
2681;BME280;1350;42.134;24.708;2024-01-30T05:17:23;101667.81;;;0.55;100.00
2681;BME280;1350;42.134;24.708;2024-01-30T05:19:50;101660.97;;;0.62;100.00
2681;BME280;1350;42.134;24.708;2024-01-30T05:22:17;101664.78;;;0.77;100.00
2681;BME280;1350;42.134;24.708;2024-01-30T05:24:44;101663.13;;;0.81;100.00
2681;BME280;1350;42.134;24.708;2024-01-30T05:27:11;101671.34;;;1.00;100.00
2681;BME280;1350;42.134;24.708;2024-01-30T05:29:39;101671.22;;;0.93;100.00
2681;BME280;1350;42.134;24.708;2024-01-30T05:32:08;101677.78;;;1.17;100.00
2681;BME280;1350;42.134;24.708;2024-01-30T05:34:36;101668.22;;;1.18;100.00
2681;BME280;1350;42.134;24.708;2024-01-30T05:37:03;101669.81;;;1.10;100.00
2681;BME280;1350;42.134;24.708;2024-01-30T05:39:30;101670.56;;;1.03;100.00
2681;BME280;1350;42.134;24.708;2024-01-30T05:41:58;101662.78;;;1.06;100.00
2681;BME280;1350;42.134;24.708;2024-01-30T05:44:25;101667.88;;;1.00;100.00
2681;BME280;1350;42.134;24.708;2024-01-30T05:46:52;101661.88;;;1.04;100.00
2681;BME280;1350;42.134;24.708;2024-01-30T05:49:21;101671.66;;;1.15;100.00
2681;BME280;1350;42.134;24.708;2024-01-30T05:51:47;101669.25;;;1.24;100.00
2681;BME280;1350;42.134;24.708;2024-01-30T05:54:14;101665.47;;;1.10;100.00
2681;BME280;1350;42.134;24.708;2024-01-30T05:56:41;101664.66;;;1.13;100.00
2681;BME280;1350;42.134;24.708;2024-01-30T05:59:08;101664.69;;;1.16;100.00
2681;BME280;1350;42.134;24.708;2024-01-30T06:01:35;101668.41;;;1.27;100.00
2681;BME280;1350;42.134;24.708;2024-01-30T06:04:02;101662.94;;;1.15;100.00
2681;BME280;1350;42.134;24.708;2024-01-30T06:06:31;101663.63;;;1.06;100.00
2681;BME280;1350;42.134;24.708;2024-01-30T06:08:58;101661.88;;;1.04;100.00
2681;BME280;1350;42.134;24.708;2024-01-30T06:11:25;101667.06;;;1.02;100.00
2681;BME280;1350;42.134;24.708;2024-01-30T06:13:52;101665.66;;;1.19;100.00
2681;BME280;1350;42.134;24.708;2024-01-30T06:16:19;101670.09;;;1.25;100.00
2681;BME280;1350;42.134;24.708;2024-01-30T06:18:48;101674.44;;;1.23;100.00
2681;BME280;1350;42.134;24.708;2024-01-30T06:21:15;101670.50;;;1.46;100.00
2681;BME280;1350;42.134;24.708;2024-01-30T06:23:43;101667.91;;;1.47;100.00
2681;BME280;1350;42.134;24.708;2024-01-30T06:26:10;101674.72;;;1.39;100.00
2681;BME280;1350;42.134;24.708;2024-01-30T06:28:37;101677.34;;;1.39;100.00
2681;BME280;1350;42.134;24.708;2024-01-30T06:31:04;101685.16;;;1.38;100.00
2681;BME280;1350;42.134;24.708;2024-01-30T06:33:31;101682.59;;;1.41;100.00
2681;BME280;1350;42.134;24.708;2024-01-30T06:35:58;101693.09;;;1.44;100.00
2681;BME280;1350;42.134;24.708;2024-01-30T06:38:25;101687.91;;;1.45;100.00
2681;BME280;1350;42.134;24.708;2024-01-30T06:40:53;101675.16;;;1.16;100.00
2681;BME280;1350;42.134;24.708;2024-01-30T06:43:20;101671.53;;;1.09;100.00
2681;BME280;1350;42.134;24.708;2024-01-30T06:45:47;101678.38;;;1.01;100.00
2681;BME280;1350;42.134;24.708;2024-01-30T06:48:14;101672.88;;;0.89;100.00
2681;BME280;1350;42.134;24.708;2024-01-30T06:50:41;101670.19;;;0.86;100.00
2681;BME280;1350;42.134;24.708;2024-01-30T06:53:07;101678.34;;;1.00;100.00
2681;BME280;1350;42.134;24.708;2024-01-30T06:55:34;101679.63;;;1.21;100.00
2681;BME280;1350;42.134;24.708;2024-01-30T06:58:03;101683.19;;;1.26;100.00
2681;BME280;1350;42.134;24.708;2024-01-30T07:00:31;101682.72;;;1.47;100.00
2681;BME280;1350;42.134;24.708;2024-01-30T07:02:58;101689.09;;;1.62;100.00
2681;BME280;1350;42.134;24.708;2024-01-30T07:05:25;101700.09;;;1.45;100.00
2681;BME280;1350;42.134;24.708;2024-01-30T07:07:52;101699.94;;;1.37;100.00
2681;BME280;1350;42.134;24.708;2024-01-30T07:10:19;101693.19;;;1.48;100.00
2681;BME280;1350;42.134;24.708;2024-01-30T07:12:46;101687.50;;;1.70;100.00
2681;BME280;1350;42.134;24.708;2024-01-30T07:15:14;101694.06;;;1.49;100.00
2681;BME280;1350;42.134;24.708;2024-01-30T07:17:45;101694.16;;;1.53;100.00
2681;BME280;1350;42.134;24.708;2024-01-30T07:20:12;101692.44;;;1.55;100.00
2681;BME280;1350;42.134;24.708;2024-01-30T07:22:39;101684.50;;;1.51;100.00
2681;BME280;1350;42.134;24.708;2024-01-30T07:25:07;101688.00;;;1.51;100.00
2681;BME280;1350;42.134;24.708;2024-01-30T07:27:35;101691.69;;;1.61;100.00
2681;BME280;1350;42.134;24.708;2024-01-30T07:30:02;101689.16;;;1.67;100.00
2681;BME280;1350;42.134;24.708;2024-01-30T07:32:30;101687.56;;;1.75;100.00
2681;BME280;1350;42.134;24.708;2024-01-30T07:34:57;101697.34;;;1.87;100.00
2681;BME280;1350;42.134;24.708;2024-01-30T07:37:24;101701.56;;;1.78;100.00
2681;BME280;1350;42.134;24.708;2024-01-30T07:39:51;101702.44;;;1.79;100.00
2681;BME280;1350;42.134;24.708;2024-01-30T07:42:18;101700.50;;;1.66;100.00
2681;BME280;1350;42.134;24.708;2024-01-30T07:44:45;101702.28;;;1.70;100.00
2681;BME280;1350;42.134;24.708;2024-01-30T07:47:12;101702.63;;;1.91;100.00
2681;BME280;1350;42.134;24.708;2024-01-30T07:49:41;101703.47;;;1.89;100.00
2681;BME280;1350;42.134;24.708;2024-01-30T07:52:08;101694.81;;;1.93;100.00
2681;BME280;1350;42.134;24.708;2024-01-30T07:54:35;101700.06;;;1.94;100.00
2681;BME280;1350;42.134;24.708;2024-01-30T07:57:05;101699.22;;;1.94;100.00
2681;BME280;1350;42.134;24.708;2024-01-30T07:59:32;101694.00;;;1.95;100.00
2681;BME280;1350;42.134;24.708;2024-01-30T08:01:59;101686.13;;;1.92;100.00
2681;BME280;1350;42.134;24.708;2024-01-30T08:04:26;101692.13;;;1.88;100.00
2681;BME280;1350;42.134;24.708;2024-01-30T08:06:54;101689.84;;;2.09;100.00
2681;BME280;1350;42.134;24.708;2024-01-30T08:09:21;101691.75;;;2.18;100.00
2681;BME280;1350;42.134;24.708;2024-01-30T08:11:48;101694.56;;;2.31;100.00
2681;BME280;1350;42.134;24.708;2024-01-30T08:14:15;101700.75;;;2.36;98.65
2681;BME280;1350;42.134;24.708;2024-01-30T08:16:42;101702.59;;;2.45;95.36
2681;BME280;1350;42.134;24.708;2024-01-30T08:19:09;101693.09;;;2.50;92.59
2681;BME280;1350;42.134;24.708;2024-01-30T08:21:36;101699.41;;;2.64;91.64
2681;BME280;1350;42.134;24.708;2024-01-30T08:24:05;101693.34;;;2.68;91.59
2681;BME280;1350;42.134;24.708;2024-01-30T08:26:32;101683.81;;;2.73;89.60
2681;BME280;1350;42.134;24.708;2024-01-30T08:28:59;101696.88;;;2.71;89.99
2681;BME280;1350;42.134;24.708;2024-01-30T08:31:26;101689.03;;;2.73;89.96
2681;BME280;1350;42.134;24.708;2024-01-30T08:33:53;101686.28;;;2.62;92.13
2681;BME280;1350;42.134;24.708;2024-01-30T08:36:20;101683.97;;;2.85;91.94
2681;BME280;1350;42.134;24.708;2024-01-30T08:38:47;101685.84;;;2.93;89.44
2681;BME280;1350;42.134;24.708;2024-01-30T08:41:16;101689.31;;;2.94;88.23
2681;BME280;1350;42.134;24.708;2024-01-30T08:43:43;101683.47;;;3.17;87.19
2681;BME280;1350;42.134;24.708;2024-01-30T08:46:10;101692.34;;;3.27;85.79
2681;BME280;1350;42.134;24.708;2024-01-30T08:48:37;101690.53;;;3.23;84.52
2681;BME280;1350;42.134;24.708;2024-01-30T08:51:05;101688.06;;;3.35;84.67
2681;BME280;1350;42.134;24.708;2024-01-30T08:53:34;101689.91;;;3.45;83.18
2681;BME280;1350;42.134;24.708;2024-01-30T08:56:02;101683.94;;;3.58;81.31
2681;BME280;1350;42.134;24.708;2024-01-30T08:58:31;101690.91;;;3.59;81.06
2681;BME280;1350;42.134;24.708;2024-01-30T09:00:58;101688.50;;;3.83;79.23
2681;BME280;1350;42.134;24.708;2024-01-30T09:03:25;101683.19;;;3.74;78.38
2681;BME280;1350;42.134;24.708;2024-01-30T09:05:53;101682.44;;;3.87;77.02
2681;BME280;1350;42.134;24.708;2024-01-30T09:08:20;101682.34;;;3.74;76.49
2681;BME280;1350;42.134;24.708;2024-01-30T09:10:46;101686.78;;;3.87;75.09
2681;BME280;1350;42.134;24.708;2024-01-30T09:13:15;101688.66;;;4.00;73.14
2681;BME280;1350;42.134;24.708;2024-01-30T09:15:43;101680.81;;;4.00;70.38
2681;BME280;1350;42.134;24.708;2024-01-30T09:18:10;101683.34;;;3.92;70.56
2681;BME280;1350;42.134;24.708;2024-01-30T09:20:37;101681.66;;;4.00;71.20
2681;BME280;1350;42.134;24.708;2024-01-30T09:23:04;101670.34;;;4.04;70.34
2681;BME280;1350;42.134;24.708;2024-01-30T09:25:31;101664.19;;;4.04;70.97
2681;BME280;1350;42.134;24.708;2024-01-30T09:27:59;101665.09;;;4.04;70.58
2681;BME280;1350;42.134;24.708;2024-01-30T09:30:26;101665.91;;;3.99;70.59
2681;BME280;1350;42.134;24.708;2024-01-30T09:32:54;101670.34;;;4.06;70.60
2681;BME280;1350;42.134;24.708;2024-01-30T09:35:21;101659.94;;;4.18;70.48
2681;BME280;1350;42.134;24.708;2024-01-30T09:37:48;101652.03;;;4.16;69.79
2681;BME280;1350;42.134;24.708;2024-01-30T09:40:17;101654.66;;;4.15;69.96
2681;BME280;1350;42.134;24.708;2024-01-30T09:42:47;101647.59;;;4.06;71.50
2681;BME280;1350;42.134;24.708;2024-01-30T09:45:15;101645.00;;;4.12;72.08
2681;BME280;1350;42.134;24.708;2024-01-30T09:47:44;101645.94;;;4.23;71.23
2681;BME280;1350;42.134;24.708;2024-01-30T09:50:14;101639.00;;;4.27;70.95
2681;BME280;1350;42.134;24.708;2024-01-30T09:52:42;101637.25;;;4.30;71.24
2681;BME280;1350;42.134;24.708;2024-01-30T09:55:09;101632.88;;;4.34;70.22
2681;BME280;1350;42.134;24.708;2024-01-30T09:57:36;101633.84;;;4.48;69.89
2681;BME280;1350;42.134;24.708;2024-01-30T10:00:04;101631.25;;;4.52;69.91
2681;BME280;1350;42.134;24.708;2024-01-30T10:02:34;101637.41;;;4.56;69.12
2681;BME280;1350;42.134;24.708;2024-01-30T10:05:01;101632.19;;;4.68;67.98
2681;BME280;1350;42.134;24.708;2024-01-30T10:07:30;101630.44;;;4.65;66.92
2681;BME280;1350;42.134;24.708;2024-01-30T10:09:57;101634.03;;;4.85;66.66
2681;BME280;1350;42.134;24.708;2024-01-30T10:12:26;101631.41;;;4.87;65.71
2681;BME280;1350;42.134;24.708;2024-01-30T10:14:55;101627.88;;;4.83;65.73
2681;BME280;1350;42.134;24.708;2024-01-30T10:17:25;101627.00;;;4.86;65.72
2681;BME280;1350;42.134;24.708;2024-01-30T10:19:52;101630.53;;;4.95;65.19
2681;BME280;1350;42.134;24.708;2024-01-30T10:22:19;101627.91;;;4.88;64.20
2681;BME280;1350;42.134;24.708;2024-01-30T10:24:48;101618.31;;;5.05;63.35
2681;BME280;1350;42.134;24.708;2024-01-30T10:27:24;101619.22;;;5.13;62.57
2681;BME280;1350;42.134;24.708;2024-01-30T10:29:52;101624.50;;;5.28;62.55
2681;BME280;1350;42.134;24.708;2024-01-30T10:32:19;101617.53;;;5.48;62.95
2681;BME280;1350;42.134;24.708;2024-01-30T10:34:47;101626.28;;;5.41;61.88
2681;BME280;1350;42.134;24.708;2024-01-30T10:37:15;101621.88;;;5.49;60.77
2681;BME280;1350;42.134;24.708;2024-01-30T10:39:43;101619.28;;;5.69;59.86
2681;BME280;1350;42.134;24.708;2024-01-30T10:42:13;101618.41;;;5.70;60.16
2681;BME280;1350;42.134;24.708;2024-01-30T10:44:56;101618.41;;;5.73;59.49
2681;BME280;1350;42.134;24.708;2024-01-30T10:47:27;101613.13;;;5.79;59.46
2681;BME280;1350;42.134;24.708;2024-01-30T10:49:54;101609.66;;;5.99;57.72
2681;BME280;1350;42.134;24.708;2024-01-30T10:52:23;101614.03;;;6.06;56.97
2681;BME280;1350;42.134;24.708;2024-01-30T10:54:55;101601.72;;;6.22;57.21
2681;BME280;1350;42.134;24.708;2024-01-30T10:57:24;101601.66;;;6.37;58.91
2681;BME280;1350;42.134;24.708;2024-01-30T10:59:53;101600.75;;;6.54;56.61
2681;BME280;1350;42.134;24.708;2024-01-30T11:02:21;101607.75;;;6.57;55.66
2681;BME280;1350;42.134;24.708;2024-01-30T11:04:54;101596.34;;;6.47;55.93
2681;BME280;1350;42.134;24.708;2024-01-30T11:07:27;101597.28;;;6.34;55.52
2681;BME280;1350;42.134;24.708;2024-01-30T11:10:01;101599.06;;;6.28;55.71
2681;BME280;1350;42.134;24.708;2024-01-30T11:12:31;101594.66;;;6.30;54.73
2681;BME280;1350;42.134;24.708;2024-01-30T11:15:04;101593.72;;;6.47;54.53
2681;BME280;1350;42.134;24.708;2024-01-30T11:17:47;101587.50;;;6.68;54.11
2681;BME280;1350;42.134;24.708;2024-01-30T11:20:19;101582.97;;;6.93;53.58
2681;BME280;1350;42.134;24.708;2024-01-30T11:22:47;101582.72;;;7.36;52.33
2681;BME280;1350;42.134;24.708;2024-01-30T11:25:15;101585.81;;;7.85;52.31
2681;BME280;1350;42.134;24.708;2024-01-30T11:27:44;101583.28;;;8.61;50.50
2681;BME280;1350;42.134;24.708;2024-01-30T11:30:21;101567.34;;;9.27;48.82
2681;BME280;1350;42.134;24.708;2024-01-30T11:32:58;101563.94;;;9.72;46.62
2681;BME280;1350;42.134;24.708;2024-01-30T11:35:26;101557.09;;;10.11;46.03
2681;BME280;1350;42.134;24.708;2024-01-30T11:38:06;101556.53;;;10.40;45.89
2681;BME280;1350;42.134;24.708;2024-01-30T11:41:13;101550.94;;;10.94;44.53
2681;BME280;1350;42.134;24.708;2024-01-30T11:43:51;101544.13;;;10.83;44.26
2681;BME280;1350;42.134;24.708;2024-01-30T11:46:18;101544.16;;;11.21;42.94
2681;BME280;1350;42.134;24.708;2024-01-30T11:48:45;101542.13;;;11.67;42.58
2681;BME280;1350;42.134;24.708;2024-01-30T11:51:13;101534.91;;;12.06;41.51
2681;BME280;1350;42.134;24.708;2024-01-30T11:53:41;101533.19;;;12.35;40.32
2681;BME280;1350;42.134;24.708;2024-01-30T11:56:08;101523.63;;;12.59;40.87
2681;BME280;1350;42.134;24.708;2024-01-30T11:58:35;101517.09;;;12.69;40.21
2681;BME280;1350;42.134;24.708;2024-01-30T12:01:04;101516.25;;;12.97;39.73
2681;BME280;1350;42.134;24.708;2024-01-30T12:03:31;101512.59;;;13.01;38.96
2681;BME280;1350;42.134;24.708;2024-01-30T12:05:58;101518.13;;;12.94;39.21
2681;BME280;1350;42.134;24.708;2024-01-30T12:08:25;101509.16;;;12.67;39.31
2681;BME280;1350;42.134;24.708;2024-01-30T12:10:56;101510.66;;;12.48;39.14
2681;BME280;1350;42.134;24.708;2024-01-30T12:13:24;101497.09;;;13.14;38.50
2681;BME280;1350;42.134;24.708;2024-01-30T12:15:52;101493.22;;;12.95;37.75
2681;BME280;1350;42.134;24.708;2024-01-30T12:18:20;101492.78;;;12.81;38.47
2681;BME280;1350;42.134;24.708;2024-01-30T12:20:57;101488.53;;;12.16;39.35
2681;BME280;1350;42.134;24.708;2024-01-30T12:23:24;101478.66;;;12.50;38.66
2681;BME280;1350;42.134;24.708;2024-01-30T12:25:51;101476.28;;;12.70;38.30
2681;BME280;1350;42.134;24.708;2024-01-30T12:28:19;101463.97;;;12.66;38.63
2681;BME280;1350;42.134;24.708;2024-01-30T12:30:46;101464.44;;;13.07;38.01
2681;BME280;1350;42.134;24.708;2024-01-30T12:33:16;101455.56;;;13.07;37.90
2681;BME280;1350;42.134;24.708;2024-01-30T12:35:47;101466.38;;;12.73;38.10
2681;BME280;1350;42.134;24.708;2024-01-30T12:38:14;101471.75;;;12.72;37.63
2681;BME280;1350;42.134;24.708;2024-01-30T12:40:41;101465.06;;;13.15;37.95
2681;BME280;1350;42.134;24.708;2024-01-30T12:43:08;101458.75;;;13.44;36.63
2681;BME280;1350;42.134;24.708;2024-01-30T12:45:36;101460.06;;;13.06;37.53
2681;BME280;1350;42.134;24.708;2024-01-30T12:48:03;101470.56;;;12.82;36.95
2681;BME280;1350;42.134;24.708;2024-01-30T12:50:30;101467.56;;;12.36;38.28
2681;BME280;1350;42.134;24.708;2024-01-30T12:52:59;101460.53;;;12.33;37.92
2681;BME280;1350;42.134;24.708;2024-01-30T12:55:26;101456.91;;;12.07;38.38
2681;BME280;1350;42.134;24.708;2024-01-30T12:57:54;101456.38;;;12.54;37.60
2681;BME280;1350;42.134;24.708;2024-01-30T13:00:21;101447.16;;;12.93;37.29
2681;BME280;1350;42.134;24.708;2024-01-30T13:02:48;101447.75;;;13.02;37.00
2681;BME280;1350;42.134;24.708;2024-01-30T13:05:15;101454.59;;;12.54;37.83
2681;BME280;1350;42.134;24.708;2024-01-30T13:07:42;101450.06;;;12.27;37.83